createdAt,value
2019-03-27T00:02:18.689Z,38.17
2019-03-27T00:04:47.081Z,38.33
2019-03-27T00:07:15.474Z,38.41
2019-03-27T00:09:43.871Z,38.50
2019-03-27T00:12:12.334Z,38.46
2019-03-27T00:14:40.729Z,38.29
2019-03-27T00:17:09.114Z,38.48
2019-03-27T00:19:37.558Z,38.54
2019-03-27T00:22:06.024Z,38.50
2019-03-27T00:24:34.408Z,38.59
2019-03-27T00:27:02.808Z,38.39
2019-03-27T00:29:31.199Z,38.28
2019-03-27T00:31:59.612Z,38.18
2019-03-27T00:34:28.089Z,38.02
2019-03-27T00:36:56.518Z,38.00
2019-03-27T00:39:24.926Z,37.91
2019-03-27T00:41:53.352Z,37.93
2019-03-27T00:44:21.745Z,37.85
2019-03-27T00:46:50.182Z,37.69
2019-03-27T00:49:18.568Z,37.66
2019-03-27T00:51:46.986Z,37.60
2019-03-27T00:54:15.377Z,37.66
2019-03-27T00:56:43.797Z,37.61
2019-03-27T00:59:12.195Z,37.55
2019-03-27T01:01:40.692Z,37.49
2019-03-27T01:04:09.086Z,37.52
2019-03-27T01:06:37.492Z,37.47
2019-03-27T01:09:06.118Z,37.33
2019-03-27T01:11:34.505Z,37.28
2019-03-27T01:14:02.893Z,37.33
2019-03-27T01:16:31.285Z,37.30
2019-03-27T01:18:59.682Z,37.44
2019-03-27T01:21:28.202Z,37.26
2019-03-27T01:23:56.593Z,37.35
2019-03-27T01:26:24.975Z,37.25
2019-03-27T01:28:53.365Z,37.22
2019-03-27T01:31:21.748Z,37.31
2019-03-27T01:33:50.130Z,37.36
2019-03-27T01:36:18.522Z,37.47
2019-03-27T01:38:46.934Z,37.33
2019-03-27T01:41:15.324Z,37.33
2019-03-27T01:43:43.707Z,37.38
2019-03-27T01:46:12.092Z,37.42
2019-03-27T01:48:40.482Z,37.31
2019-03-27T01:51:08.864Z,37.38
2019-03-27T01:53:37.433Z,37.32
2019-03-27T01:56:05.822Z,37.35
2019-03-27T01:58:34.245Z,37.43
2019-03-27T02:01:02.672Z,37.25
2019-03-27T02:03:31.181Z,37.18
2019-03-27T02:05:59.565Z,37.30
2019-03-27T02:08:28.046Z,37.36
2019-03-27T02:10:56.504Z,37.37
2019-03-27T02:13:24.929Z,37.29
2019-03-27T02:16:05.903Z,37.33
2019-03-27T02:18:23.473Z,37.13
2019-03-27T02:20:51.860Z,37.12
2019-03-27T02:23:20.287Z,37.06
2019-03-27T02:25:48.865Z,37.13
2019-03-27T02:28:17.292Z,36.92
2019-03-27T02:30:45.676Z,36.99
2019-03-27T02:33:14.105Z,36.93
2019-03-27T02:35:42.494Z,37.20
2019-03-27T02:38:10.949Z,37.04
2019-03-27T02:40:39.356Z,37.02
2019-03-27T02:43:07.789Z,36.74
2019-03-27T02:45:36.172Z,36.98
2019-03-27T02:48:04.614Z,37.10
2019-03-27T02:50:32.999Z,37.01
2019-03-27T02:53:01.437Z,37.00
2019-03-27T02:55:29.787Z,37.07
2019-03-27T02:57:58.168Z,37.01
2019-03-27T03:00:26.556Z,36.98
2019-03-27T03:02:54.942Z,36.89
2019-03-27T03:05:23.335Z,37.03
2019-03-27T03:07:51.730Z,36.91
2019-03-27T03:10:20.142Z,36.96
2019-03-27T03:12:48.538Z,36.96
2019-03-27T03:15:20.186Z,36.94
2019-03-27T03:17:49.014Z,36.97
2019-03-27T03:20:17.411Z,36.85
2019-03-27T03:22:45.840Z,37.02
2019-03-27T03:25:14.232Z,37.09
2019-03-27T03:27:42.668Z,37.24
2019-03-27T03:30:11.170Z,37.03
2019-03-27T03:32:39.892Z,36.95
2019-03-27T03:35:08.766Z,37.06
2019-03-27T03:37:37.188Z,37.03
2019-03-27T03:40:06.358Z,37.11
2019-03-27T03:42:34.759Z,37.17
2019-03-27T03:45:03.420Z,37.19
2019-03-27T03:47:31.811Z,37.09
2019-03-27T03:50:00.520Z,37.12
2019-03-27T03:52:29.001Z,37.12
2019-03-27T03:54:57.463Z,37.09
2019-03-27T03:57:26.929Z,37.05
2019-03-27T03:59:55.314Z,36.96
2019-03-27T04:02:23.711Z,37.15
2019-03-27T04:04:52.181Z,37.11
2019-03-27T04:07:20.571Z,37.04
2019-03-27T04:09:48.981Z,37.15
2019-03-27T04:12:17.379Z,36.98
2019-03-27T04:14:45.754Z,37.04
2019-03-27T04:17:17.388Z,36.89
2019-03-27T04:19:44.299Z,37.01
2019-03-27T04:22:12.684Z,36.91
2019-03-27T04:24:41.095Z,37.05
2019-03-27T04:27:09.502Z,36.84
2019-03-27T04:29:37.915Z,36.92
2019-03-27T04:32:06.331Z,36.81
2019-03-27T04:34:34.742Z,36.85
2019-03-27T04:37:03.131Z,36.77
2019-03-27T04:39:31.511Z,36.57
2019-03-27T04:41:59.904Z,36.90
2019-03-27T04:44:28.314Z,36.94
2019-03-27T04:46:56.883Z,36.85
2019-03-27T04:49:25.318Z,36.89
2019-03-27T04:51:53.710Z,36.78
2019-03-27T04:54:22.208Z,36.77
2019-03-27T04:56:50.603Z,36.73
2019-03-27T04:59:19.118Z,36.76
2019-03-27T05:01:47.516Z,36.78
2019-03-27T05:04:16.002Z,36.65
2019-03-27T05:06:44.397Z,36.70
2019-03-27T05:09:12.814Z,36.76
2019-03-27T05:11:41.275Z,36.71
2019-03-27T05:14:09.711Z,36.88
2019-03-27T05:16:38.198Z,36.69
2019-03-27T05:19:06.717Z,36.46
2019-03-27T05:21:35.130Z,36.46
2019-03-27T05:24:03.561Z,36.60
2019-03-27T05:26:31.945Z,36.69
2019-03-27T05:29:00.393Z,36.83
2019-03-27T05:31:28.790Z,36.58
2019-03-27T05:33:57.225Z,36.78
2019-03-27T05:36:25.622Z,36.59
2019-03-27T05:38:54.032Z,36.70
2019-03-27T05:41:22.425Z,36.49
2019-03-27T05:43:50.861Z,36.44
2019-03-27T05:46:19.241Z,36.46
2019-03-27T05:48:47.670Z,36.55
2019-03-27T05:51:16.101Z,36.63
2019-03-27T05:53:44.522Z,36.49
2019-03-27T05:56:12.990Z,36.59
2019-03-27T05:58:41.418Z,36.44
2019-03-27T06:01:09.809Z,36.67
2019-03-27T06:03:38.347Z,36.69
2019-03-27T06:06:06.744Z,36.65
2019-03-27T06:08:35.143Z,36.75
2019-03-27T06:11:03.537Z,36.61
2019-03-27T06:13:31.937Z,36.80
2019-03-27T06:16:00.329Z,37.55
2019-03-27T06:18:28.722Z,37.35
2019-03-27T06:20:57.134Z,37.43
2019-03-27T06:23:25.528Z,37.50
2019-03-27T06:25:53.935Z,37.49
2019-03-27T06:28:22.323Z,37.29
2019-03-27T06:30:50.717Z,37.29
2019-03-27T06:33:19.114Z,37.25
2019-03-27T06:35:47.512Z,36.97
2019-03-27T06:38:15.908Z,37.00
2019-03-27T06:40:44.303Z,36.78
2019-03-27T06:43:12.698Z,36.63
2019-03-27T06:45:41.158Z,36.65
2019-03-27T06:48:09.551Z,36.54
2019-03-27T06:50:37.942Z,36.42
2019-03-27T06:53:06.338Z,36.43
2019-03-27T06:55:34.852Z,36.35
2019-03-27T06:58:03.246Z,36.16
2019-03-27T07:00:35.664Z,36.19
2019-03-27T07:03:04.623Z,36.13
2019-03-27T07:05:33.019Z,36.05
2019-03-27T07:08:01.883Z,35.96
2019-03-27T07:10:30.280Z,35.89
2019-03-27T07:12:58.676Z,35.91
2019-03-27T07:15:27.093Z,35.78
2019-03-27T07:17:55.486Z,35.67
2019-03-27T07:20:23.884Z,35.74
2019-03-27T07:22:52.279Z,35.69
2019-03-27T07:25:20.691Z,35.69
2019-03-27T07:27:49.091Z,35.66
2019-03-27T07:30:17.517Z,35.47
2019-03-27T07:32:45.911Z,35.38
2019-03-27T07:35:14.343Z,35.06
2019-03-27T07:37:42.741Z,34.84
2019-03-27T07:40:11.166Z,34.60
2019-03-27T07:42:39.577Z,34.34
2019-03-27T07:45:08.011Z,33.99
2019-03-27T07:47:36.541Z,33.66
2019-03-27T07:50:06.896Z,33.41
2019-03-27T07:52:35.355Z,33.35
2019-03-27T07:55:04.179Z,33.50
2019-03-27T07:57:32.573Z,33.54
2019-03-27T08:00:01.003Z,33.56
2019-03-27T08:02:29.398Z,33.59
2019-03-27T08:04:57.823Z,33.56
2019-03-27T08:07:27.295Z,33.58
2019-03-27T08:09:55.797Z,33.57
2019-03-27T08:12:24.263Z,33.59
2019-03-27T08:14:52.699Z,33.59
2019-03-27T08:17:21.096Z,33.59
2019-03-27T08:19:49.486Z,33.56
2019-03-27T08:22:17.881Z,33.58
2019-03-27T08:24:46.282Z,33.62
2019-03-27T08:27:14.779Z,33.59
2019-03-27T08:29:43.322Z,33.59
2019-03-27T08:32:11.722Z,33.52
2019-03-27T08:34:40.137Z,33.50
2019-03-27T08:37:08.548Z,33.47
2019-03-27T08:39:36.941Z,33.40
2019-03-27T08:42:05.335Z,33.25
2019-03-27T08:44:33.729Z,33.12
2019-03-27T08:47:02.180Z,33.06
2019-03-27T08:49:30.565Z,33.05
2019-03-27T08:51:58.999Z,33.08
2019-03-27T08:54:27.384Z,33.05
2019-03-27T08:56:55.802Z,32.97
2019-03-27T09:01:51.773Z,32.89
2019-03-27T09:04:20.371Z,32.96
2019-03-27T09:06:48.802Z,33.01
2019-03-27T09:09:17.194Z,33.02
2019-03-27T09:11:45.635Z,32.93
2019-03-27T09:14:14.026Z,32.99
2019-03-27T09:16:42.453Z,33.01
2019-03-27T09:19:11.036Z,32.97
2019-03-27T09:21:39.586Z,32.95
2019-03-27T09:24:08.085Z,32.90
2019-03-27T09:26:36.652Z,32.90
2019-03-27T09:29:08.246Z,32.89
2019-03-27T09:31:44.880Z,32.98
2019-03-27T09:34:05.371Z,32.93
2019-03-27T09:36:33.790Z,32.90
2019-03-27T09:39:02.309Z,32.78
2019-03-27T09:41:30.816Z,32.82
2019-03-27T09:43:59.292Z,32.91
2019-03-27T09:46:27.773Z,32.92
2019-03-27T09:48:56.257Z,32.80
2019-03-27T09:51:24.680Z,32.82
2019-03-27T09:53:53.453Z,32.76
2019-03-27T09:56:22.015Z,32.66
2019-03-27T09:58:50.488Z,32.52
2019-03-27T10:01:19.067Z,32.58
2019-03-27T10:03:47.664Z,32.63
2019-03-27T10:06:16.115Z,32.66
2019-03-27T10:08:44.611Z,32.52
2019-03-27T10:11:13.096Z,32.45
2019-03-27T10:13:41.586Z,32.40
2019-03-27T10:16:10.042Z,32.43
2019-03-27T10:18:38.454Z,32.43
2019-03-27T10:21:06.968Z,32.30
2019-03-27T10:23:35.377Z,32.21
2019-03-27T10:26:03.800Z,32.06
2019-03-27T10:28:32.358Z,31.92
2019-03-27T10:31:00.785Z,31.75
2019-03-27T10:33:29.321Z,31.54
2019-03-27T10:35:57.801Z,31.35
2019-03-27T10:38:26.309Z,31.19
2019-03-27T10:40:54.724Z,31.16
2019-03-27T10:43:23.245Z,30.95
2019-03-27T10:45:51.669Z,30.73
2019-03-27T10:48:20.207Z,30.49
2019-03-27T10:50:48.689Z,30.20
2019-03-27T10:53:17.166Z,29.87
2019-03-27T10:55:45.589Z,29.39
2019-03-27T10:58:14.027Z,28.98
2019-03-27T11:00:42.517Z,28.51
2019-03-27T11:03:10.996Z,28.01
2019-03-27T11:05:39.545Z,27.38
2019-03-27T11:08:11.259Z,26.73
2019-03-27T11:10:38.381Z,26.01
2019-03-27T11:13:06.877Z,25.32
2019-03-27T11:15:35.294Z,24.60
2019-03-27T11:18:03.821Z,24.18
2019-03-27T11:20:32.275Z,23.75
2019-03-27T11:23:00.782Z,23.26
2019-03-27T11:25:32.836Z,23.15
2019-03-27T11:27:59.486Z,22.80
2019-03-27T11:30:36.157Z,22.49
2019-03-27T11:33:05.221Z,22.20
2019-03-27T11:35:33.645Z,21.93
2019-03-27T11:38:02.213Z,22.05
2019-03-27T11:40:30.697Z,21.88
2019-03-27T11:42:59.180Z,21.62
2019-03-27T11:45:27.598Z,21.30
2019-03-27T11:47:56.142Z,21.00
2019-03-27T11:50:24.565Z,20.69
2019-03-27T11:52:53.099Z,20.40
2019-03-27T11:55:21.520Z,20.14
2019-03-27T11:57:51.516Z,19.88
2019-03-27T12:00:19.936Z,19.77
2019-03-27T12:02:48.457Z,19.48
2019-03-27T12:05:16.874Z,19.26
2019-03-27T12:07:45.352Z,19.08
2019-03-27T12:10:14.208Z,18.88
2019-03-27T12:12:42.689Z,18.72
2019-03-27T12:15:11.168Z,18.59
2019-03-27T12:17:39.651Z,18.41
2019-03-27T12:20:08.072Z,18.25
2019-03-27T12:22:36.524Z,18.12
2019-03-27T12:25:05.673Z,17.99
2019-03-27T12:27:34.126Z,17.86
2019-03-27T12:30:05.329Z,17.73
2019-03-27T12:32:33.915Z,17.53
2019-03-27T12:35:02.395Z,17.41
2019-03-27T12:37:30.878Z,17.21
2019-03-27T12:39:59.357Z,17.14
2019-03-27T12:42:27.839Z,16.94
2019-03-27T12:44:56.296Z,16.79
2019-03-27T12:47:24.716Z,16.63
2019-03-27T12:49:53.215Z,16.44
2019-03-27T12:52:21.742Z,16.49
2019-03-27T12:54:50.218Z,16.74
2019-03-27T12:57:18.676Z,16.61
2019-03-27T12:59:47.106Z,16.45
2019-03-27T13:02:15.516Z,16.26
2019-03-27T13:04:43.947Z,16.08
2019-03-27T13:07:12.363Z,15.75
2019-03-27T13:09:40.783Z,15.58
2019-03-27T13:12:09.200Z,15.47
2019-03-27T13:14:37.682Z,15.35
2019-03-27T13:17:06.162Z,15.19
2019-03-27T13:19:34.646Z,15.10
2019-03-27T13:22:03.127Z,15.04
2019-03-27T13:24:31.603Z,14.96
2019-03-27T13:27:00.019Z,14.75
2019-03-27T13:29:28.441Z,14.82
2019-03-27T13:31:56.854Z,14.70
2019-03-27T13:34:25.322Z,14.73
2019-03-27T13:36:53.747Z,14.58
2019-03-27T13:39:22.287Z,14.54
2019-03-27T13:41:50.709Z,14.49
2019-03-27T13:44:19.147Z,14.39
2019-03-27T13:46:47.665Z,14.28
2019-03-27T13:49:16.413Z,14.23
2019-03-27T13:51:44.895Z,14.13
2019-03-27T13:54:13.336Z,14.07
2019-03-27T13:56:41.860Z,14.01
2019-03-27T13:59:10.643Z,14.02
2019-03-27T14:01:39.070Z,13.97
2019-03-27T14:04:07.607Z,13.87
2019-03-27T14:06:36.025Z,13.84
2019-03-27T14:09:07.094Z,13.83
2019-03-27T14:11:35.613Z,13.83
2019-03-27T14:14:11.219Z,14.03
2019-03-27T14:16:34.295Z,14.13
2019-03-27T14:19:02.798Z,14.19
2019-03-27T14:21:31.276Z,15.41
2019-03-27T14:23:59.754Z,16.48
2019-03-27T14:26:28.473Z,17.47
2019-03-27T14:28:57.087Z,18.42
2019-03-27T14:31:25.609Z,19.26
2019-03-27T14:33:54.193Z,20.08
2019-03-27T14:36:22.617Z,20.87
2019-03-27T14:38:51.084Z,21.59
2019-03-27T14:41:19.515Z,22.29
2019-03-27T14:43:47.988Z,22.89
2019-03-27T14:46:16.415Z,23.50
2019-03-27T14:48:44.976Z,24.02
2019-03-27T14:51:13.403Z,24.45
2019-03-27T14:53:41.934Z,24.92
2019-03-27T14:56:10.370Z,25.35
2019-03-27T14:58:38.889Z,25.77
2019-03-27T15:01:07.496Z,26.15
2019-03-27T15:03:36.081Z,26.51
2019-03-27T15:06:04.701Z,26.85
2019-03-27T15:08:33.347Z,27.04
2019-03-27T15:11:01.927Z,27.44
2019-03-27T15:13:30.511Z,27.72
2019-03-27T15:15:59.093Z,28.03
2019-03-27T15:18:27.682Z,28.25
2019-03-27T15:20:56.269Z,28.50
2019-03-27T15:23:24.844Z,28.72
2019-03-27T15:25:53.332Z,28.96
2019-03-27T15:28:21.910Z,29.20
2019-03-27T15:30:50.601Z,29.38
2019-03-27T15:33:19.183Z,29.60
2019-03-27T15:35:47.766Z,29.79
2019-03-27T15:38:16.346Z,29.87
2019-03-27T15:40:45.958Z,30.12
2019-03-27T15:43:14.645Z,30.28
2019-03-27T15:45:43.223Z,30.44
2019-03-27T15:48:11.749Z,30.58
2019-03-27T15:50:53.793Z,30.66
2019-03-27T15:53:11.025Z,30.77
2019-03-27T15:55:39.606Z,30.97
2019-03-27T15:58:08.206Z,31.11
2019-03-27T16:00:36.773Z,31.20
2019-03-27T16:03:05.353Z,31.34
2019-03-27T16:05:33.963Z,31.43
2019-03-27T16:08:02.518Z,31.52
2019-03-27T16:10:31.104Z,31.69
2019-03-27T16:12:59.691Z,31.83
2019-03-27T16:15:28.266Z,31.93
2019-03-27T16:17:56.853Z,32.10
2019-03-27T16:20:25.536Z,32.14
2019-03-27T16:22:54.131Z,32.32
2019-03-27T16:25:22.840Z,32.46
2019-03-27T16:27:51.394Z,32.55
2019-03-27T16:30:19.975Z,32.31
2019-03-27T16:32:48.769Z,32.82
2019-03-27T16:35:19.302Z,32.88
2019-03-27T16:37:47.800Z,32.68
2019-03-27T16:40:18.098Z,32.21
2019-03-27T16:42:46.686Z,32.95
2019-03-27T16:45:15.263Z,33.02
2019-03-27T16:47:43.765Z,32.78
2019-03-27T16:50:12.254Z,33.05
2019-03-27T16:52:40.810Z,33.22
2019-03-27T16:55:09.397Z,33.04
2019-03-27T16:57:37.979Z,33.37
2019-03-27T17:00:08.205Z,33.55
2019-03-27T17:02:37.198Z,33.46
2019-03-27T17:05:07.415Z,33.59
2019-03-27T17:07:40.624Z,33.64
2019-03-27T17:10:09.093Z,33.74
2019-03-27T17:12:37.672Z,33.81
2019-03-27T17:15:07.547Z,33.78
2019-03-27T17:17:36.170Z,34.05
2019-03-27T17:20:08.027Z,33.97
2019-03-27T17:22:36.713Z,34.17
2019-03-27T17:25:07.066Z,34.00
2019-03-27T17:27:36.030Z,34.22
2019-03-27T17:30:06.830Z,34.25
2019-03-27T17:32:35.349Z,34.33
2019-03-27T17:35:05.434Z,34.31
2019-03-27T17:37:33.868Z,34.34
2019-03-27T17:40:02.428Z,34.43
2019-03-27T17:42:31.014Z,34.53
2019-03-27T17:45:00.017Z,34.55
2019-03-27T17:47:28.686Z,34.54
2019-03-27T17:49:57.277Z,34.69
2019-03-27T17:52:26.266Z,34.69
2019-03-27T17:54:55.973Z,34.70
2019-03-27T17:57:25.380Z,34.49
2019-03-27T17:59:53.962Z,34.61
2019-03-27T18:02:22.650Z,34.86
2019-03-27T18:04:51.235Z,34.92
2019-03-27T18:07:19.816Z,35.02
2019-03-27T18:09:48.808Z,34.95
2019-03-27T18:12:17.393Z,34.99
2019-03-27T18:14:46.286Z,35.03
2019-03-27T18:17:14.854Z,35.11
2019-03-27T18:19:43.440Z,35.14
2019-03-27T18:22:13.353Z,35.11
2019-03-27T18:24:43.588Z,35.07
2019-03-27T18:27:12.675Z,35.06
2019-03-27T18:29:41.256Z,35.21
2019-03-27T18:32:09.840Z,35.19
2019-03-27T18:34:38.424Z,35.21
2019-03-27T18:37:06.900Z,35.25
2019-03-27T18:39:35.488Z,35.29
2019-03-27T18:42:04.168Z,35.07
2019-03-27T18:44:32.756Z,35.20
2019-03-27T18:47:01.340Z,35.28
2019-03-27T18:49:29.832Z,35.37
2019-03-27T18:51:58.456Z,35.40
2019-03-27T18:54:27.396Z,35.33
2019-03-27T18:56:55.987Z,35.32
2019-03-27T18:59:24.667Z,35.34
2019-03-27T19:01:53.247Z,35.35
2019-03-27T19:04:21.649Z,35.30
2019-03-27T19:06:50.058Z,35.21
2019-03-27T19:09:18.540Z,35.27
2019-03-27T19:11:46.945Z,35.38
2019-03-27T19:14:15.361Z,35.38
2019-03-27T19:16:43.761Z,35.32
2019-03-27T19:19:12.165Z,35.39
2019-03-27T19:21:40.636Z,35.44
2019-03-27T19:24:14.969Z,35.29
2019-03-27T19:26:39.174Z,35.42
2019-03-27T19:29:07.571Z,35.39
2019-03-27T19:31:35.994Z,35.38
2019-03-27T19:34:04.468Z,35.43
2019-03-27T19:36:33.041Z,35.41
2019-03-27T19:39:01.447Z,35.25
2019-03-27T19:41:30.146Z,35.37
2019-03-27T19:43:58.547Z,35.41
2019-03-27T19:46:28.574Z,35.40
2019-03-27T19:48:59.721Z,35.46
2019-03-27T19:51:28.145Z,35.43
2019-03-27T19:53:56.613Z,35.52
2019-03-27T19:56:25.011Z,35.50
2019-03-27T19:58:53.408Z,35.41
2019-03-27T20:01:21.836Z,35.57
2019-03-27T20:03:50.230Z,35.57
2019-03-27T20:06:18.675Z,35.36
2019-03-27T20:08:47.070Z,35.47
2019-03-27T20:11:15.537Z,35.38
2019-03-27T20:13:44.085Z,35.42
2019-03-27T20:16:12.534Z,35.44
2019-03-27T20:18:40.934Z,35.46
2019-03-27T20:21:09.374Z,35.52
2019-03-27T20:23:37.774Z,35.67
2019-03-27T20:26:06.197Z,35.73
2019-03-27T20:28:34.597Z,35.68
2019-03-27T20:31:03.028Z,35.52
2019-03-27T20:33:31.423Z,35.63
2019-03-27T20:35:59.856Z,35.63
2019-03-27T20:38:28.257Z,35.72
2019-03-27T20:40:56.702Z,35.75
2019-03-27T20:43:25.094Z,35.93
2019-03-27T20:45:53.501Z,35.99
2019-03-27T20:48:21.909Z,36.04
2019-03-27T20:50:50.308Z,36.17
2019-03-27T20:53:18.714Z,36.17
2019-03-27T20:55:47.122Z,36.37
2019-03-27T20:58:15.530Z,36.33
2019-03-27T21:00:43.937Z,36.50
2019-03-27T21:03:12.341Z,36.57
2019-03-27T21:05:40.748Z,36.58
2019-03-27T21:08:09.154Z,36.73
2019-03-27T21:10:37.549Z,36.84
2019-03-27T21:13:05.965Z,36.90
2019-03-27T21:15:34.440Z,37.00
2019-03-27T21:18:02.832Z,37.08
2019-03-27T21:20:31.269Z,37.16
2019-03-27T21:22:59.671Z,37.34
2019-03-27T21:25:28.066Z,37.27
2019-03-27T21:27:57.009Z,37.46
2019-03-27T21:30:25.411Z,37.49
2019-03-27T21:32:53.845Z,37.64
2019-03-27T21:35:22.240Z,37.61
2019-03-27T21:37:50.667Z,37.75
2019-03-27T21:40:19.072Z,37.88
2019-03-27T21:42:47.515Z,38.06
2019-03-27T21:45:15.981Z,38.03
2019-03-27T21:47:44.412Z,38.17
2019-03-27T21:50:12.807Z,38.20
2019-03-27T21:52:41.246Z,38.23
2019-03-27T21:55:22.035Z,38.32
2019-03-27T21:57:39.818Z,38.33
2019-03-27T22:00:08.283Z,38.42
2019-03-27T22:02:36.713Z,38.70
2019-03-27T22:05:06.476Z,38.88
2019-03-27T22:07:34.908Z,38.90
2019-03-27T22:10:03.970Z,38.93
2019-03-27T22:12:32.372Z,39.03
2019-03-27T22:15:00.768Z,39.09
2019-03-27T22:17:29.170Z,39.03
2019-03-27T22:19:57.549Z,39.19
2019-03-27T22:22:25.932Z,39.25
2019-03-27T22:24:54.309Z,39.32
2019-03-27T22:27:22.681Z,39.56
2019-03-27T22:29:51.052Z,39.55
2019-03-27T22:32:19.441Z,39.47
2019-03-27T22:34:47.816Z,39.56
2019-03-27T22:37:16.220Z,39.61
2019-03-27T22:39:44.599Z,39.71
2019-03-27T22:42:12.998Z,39.73
2019-03-27T22:44:41.372Z,39.73
2019-03-27T22:47:09.735Z,39.79
2019-03-27T22:49:38.132Z,39.75
2019-03-27T22:52:06.615Z,39.94
2019-03-27T22:54:34.992Z,39.92
2019-03-27T22:57:03.372Z,39.92
2019-03-27T22:59:31.751Z,39.83
2019-03-27T23:02:00.139Z,39.64
2019-03-27T23:04:28.537Z,39.68
2019-03-27T23:06:56.914Z,39.67
2019-03-27T23:09:25.291Z,39.51
2019-03-27T23:11:53.665Z,39.53
2019-03-27T23:14:22.131Z,39.37
2019-03-27T23:16:50.652Z,39.34
2019-03-27T23:19:19.041Z,39.36
2019-03-27T23:21:47.448Z,39.22
2019-03-27T23:24:15.829Z,39.23
2019-03-27T23:26:44.197Z,39.22
2019-03-27T23:29:12.579Z,39.20
2019-03-27T23:31:40.973Z,39.06
2019-03-27T23:34:09.357Z,39.01
2019-03-27T23:36:37.737Z,38.88
2019-03-27T23:39:07.652Z,38.78
2019-03-27T23:41:36.027Z,38.60
2019-03-27T23:44:04.407Z,38.79
2019-03-27T23:46:32.789Z,38.75
2019-03-27T23:49:01.253Z,38.46
2019-03-27T23:51:29.694Z,38.70
2019-03-27T23:53:58.091Z,38.56
2019-03-27T23:56:26.525Z,38.67
2019-03-27T23:58:54.930Z,38.26
